Glenn Dale, Maryland
Current Conditions -  °F | °C
As of 7:50 PM on Wednesday 22 Oct 2014 (Local Time) from KCGS Reporting Station
Overcast Overcast  
Wind Chill: 55°   Ceiling: 3600
Heat Index: 55°   Visibility: 10mi
Dew Point: 46°   Wind: 12mph
Humidity: 72%   Direction: 340°NNW
Pressure: 29.93"   Gusts: 17mph
Location:  38.99°N, 76.82°W
Report Text: KCGS 222350Z AUTO 34010G15KT 10SM BKN036 OVC070 13/08 A2993 RMK AO1
Loading
Personal Weather Stations






























Interactive Weather Map
Tropical Storm Tracking
New forecast layout! Learn more

10-Day Weather Forecast

Advertisements
Track Severe Weather on mobile